Time;durP1;ratioP1;P1;durP2;ratioP2;P2;SDS_P1;SDS_P2;PMS_P1;PMS_P2;Temp;Humidity;BMP_temperature;BMP_pressure;BME280_temperature;BME280_humidity;BME280_pressure;Samples;Min_cycle;Max_cycle;Signal;HPM_P1;HPM_P2
2023/01/28 00:01:36;;;;;;;0.00;0.00;;;1.80;99.90;;;;;;5091729;28;20635;-69
2023/01/28 00:04:02;;;;;;;0.00;0.00;;;1.90;99.90;;;;;;5091702;28;20187;-70
2023/01/28 00:06:28;;;;;;;0.00;0.00;;;1.90;99.90;;;;;;5091076;28;20180;-70
2023/01/28 00:08:54;;;;;;;0.00;0.00;;;1.90;99.90;;;;;;5091822;28;20191;-70
2023/01/28 00:11:23;;;;;;;0.00;0.00;;;1.90;99.90;;;;;;5091563;28;20180;-69
2023/01/28 00:13:53;;;;;;;0.00;0.00;;;1.90;99.90;;;;;;5091500;28;20215;-70
2023/01/28 00:16:19;;;;;;;0.00;0.00;;;1.90;99.90;;;;;;5091269;28;20211;-70
2023/01/28 00:18:44;;;;;;;0.00;0.00;;;1.90;99.90;;;;;;5091322;28;20338;-70
2023/01/28 00:21:13;;;;;;;0.00;0.00;;;1.90;99.90;;;;;;5091325;28;20279;-70
2023/01/28 00:23:40;;;;;;;0.00;0.00;;;1.90;99.90;;;;;;5091415;28;20185;-70
2023/01/28 00:26:09;;;;;;;0.00;0.00;;;1.90;99.90;;;;;;5089850;28;20195;-71
2023/01/28 00:28:35;;;;;;;0.00;0.00;;;1.90;99.90;;;;;;5091071;28;20195;-70
2023/01/28 00:31:19;;;;;;;0.00;0.00;;;1.90;99.90;;;;;;5091288;28;20172;-70
2023/01/28 00:33:46;;;;;;;0.00;0.00;;;1.90;99.90;;;;;;5091151;28;20506;-70
2023/01/28 00:36:12;;;;;;;0.00;0.00;;;1.90;99.90;;;;;;5091202;28;20515;-71
2023/01/28 00:38:38;;;;;;;0.00;0.00;;;1.90;99.90;;;;;;5091123;28;20662;-69
2023/01/28 00:41:15;;;;;;;0.00;0.00;;;1.90;99.90;;;;;;5090161;28;20333;-69
2023/01/28 00:43:42;;;;;;;0.00;0.00;;;2.00;99.90;;;;;;5095498;28;20649;-70
2023/01/28 00:46:09;;;;;;;0.00;0.00;;;2.00;99.90;;;;;;5095409;28;20266;-70
2023/01/28 00:48:35;;;;;;;0.00;0.00;;;2.00;99.90;;;;;;5094128;28;20188;-70
2023/01/28 00:51:01;;;;;;;0.00;0.00;;;2.00;99.90;;;;;;5093907;28;20246;-71
2023/01/28 00:53:27;;;;;;;0.00;0.00;;;2.00;99.90;;;;;;5094970;28;20180;-70
2023/01/28 00:55:53;;;;;;;0.00;0.00;;;2.00;99.90;;;;;;5095405;28;20184;-70
2023/01/28 00:58:18;;;;;;;0.00;0.00;;;2.00;99.90;;;;;;5094996;28;20639;-70
2023/01/28 01:00:44;;;;;;;0.00;0.00;;;2.00;99.90;;;;;;5093572;28;20184;-70
2023/01/28 01:03:10;;;;;;;0.10;0.10;;;2.00;99.90;;;;;;5095127;28;20176;-70
2023/01/28 01:05:35;;;;;;;0.00;0.00;;;2.00;99.90;;;;;;5093418;28;20207;-70
2023/01/28 01:08:01;;;;;;;0.00;0.00;;;2.00;99.90;;;;;;5094995;28;20237;-70
2023/01/28 01:10:26;;;;;;;0.00;0.00;;;2.00;99.90;;;;;;5094904;28;20184;-70
2023/01/28 01:12:52;;;;;;;0.00;0.00;;;2.00;99.90;;;;;;5094500;28;20242;-70
2023/01/28 01:15:18;;;;;;;0.00;0.00;;;2.00;99.90;;;;;;5093754;28;20253;-70
2023/01/28 01:17:47;;;;;;;0.10;0.10;;;2.00;99.90;;;;;;5094661;28;20267;-70
2023/01/28 01:20:23;;;;;;;0.00;0.00;;;2.00;99.90;;;;;;5093541;28;20176;-71
2023/01/28 01:22:49;;;;;;;0.00;0.00;;;2.00;99.90;;;;;;5094639;28;20213;-71
2023/01/28 01:25:16;;;;;;;0.00;0.00;;;2.00;99.90;;;;;;5094825;28;20188;-71
2023/01/28 01:27:44;;;;;;;0.00;0.00;;;2.00;99.90;;;;;;5094703;28;20183;-71
2023/01/28 01:30:11;;;;;;;0.00;0.00;;;2.00;99.90;;;;;;5093507;28;20199;-71
2023/01/28 01:32:37;;;;;;;0.00;0.00;;;2.00;99.90;;;;;;5094545;28;20184;-70
2023/01/28 01:35:06;;;;;;;0.00;0.00;;;2.00;99.90;;;;;;5093699;28;20555;-69
2023/01/28 01:37:31;;;;;;;0.03;0.03;;;2.00;99.90;;;;;;5094586;28;20168;-69
2023/01/28 01:39:57;;;;;;;0.00;0.00;;;2.00;99.90;;;;;;5094897;28;20329;-70
2023/01/28 01:42:24;;;;;;;0.00;0.00;;;2.00;99.90;;;;;;5094720;28;20261;-69
2023/01/28 01:44:57;;;;;;;0.00;0.00;;;2.00;99.90;;;;;;5094216;28;20180;-70
2023/01/28 01:47:44;;;;;;;0.00;0.00;;;2.00;99.90;;;;;;5094578;28;20317;-70
2023/01/28 01:50:30;;;;;;;0.00;0.00;;;2.00;99.90;;;;;;5094337;28;20179;-70
2023/01/28 01:53:06;;;;;;;0.00;0.00;;;2.00;99.90;;;;;;5093405;28;20292;-70
2023/01/28 01:55:34;;;;;;;0.00;0.00;;;2.00;99.90;;;;;;5093794;28;20211;-70
2023/01/28 01:58:03;;;;;;;0.00;0.00;;;2.00;99.90;;;;;;5094316;28;20180;-70
2023/01/28 02:00:29;;;;;;;0.00;0.00;;;2.00;99.90;;;;;;5093908;28;20217;-70
2023/01/28 02:02:55;;;;;;;0.00;0.00;;;2.00;99.90;;;;;;5092352;28;20596;-70
2023/01/28 02:05:21;;;;;;;0.38;0.38;;;2.00;99.90;;;;;;5094145;28;20176;-71
2023/01/28 02:07:53;;;;;;;0.00;0.00;;;2.00;99.90;;;;;;5093853;28;20180;-70
2023/01/28 02:10:20;;;;;;;0.00;0.00;;;2.00;99.90;;;;;;5094216;28;20552;-71
2023/01/28 02:12:55;;;;;;;0.00;0.00;;;2.00;99.90;;;;;;5092277;28;20224;-70
2023/01/28 02:15:22;;;;;;;0.00;0.00;;;2.30;99.90;;;;;;5093404;28;20678;-68
2023/01/28 02:17:49;;;;;;;0.00;0.00;;;3.10;99.90;;;;;;5093603;28;20169;-68
2023/01/28 02:20:37;;;;;;;0.00;0.00;;;3.10;99.90;;;;;;5094022;28;20184;-68
2023/01/28 02:23:29;;;;;;;0.00;0.00;;;3.00;99.90;;;;;;5093740;28;20255;-67
2023/01/28 02:26:16;;;;;;;0.00;0.00;;;2.90;99.90;;;;;;5093145;28;20172;-67
2023/01/28 02:28:50;;;;;;;0.00;0.00;;;2.70;99.90;;;;;;5093069;28;20538;-67
2023/01/28 02:31:16;;;;;;;0.00;0.00;;;2.60;99.90;;;;;;5078717;28;20186;-68
2023/01/28 02:34:00;;;;;;;0.00;0.00;;;2.50;99.90;;;;;;5093534;28;20196;-67
2023/01/28 02:36:39;;;;;;;0.00;0.00;;;2.40;99.90;;;;;;5093408;28;20293;-67
2023/01/28 02:39:12;;;;;;;0.00;0.00;;;2.30;99.90;;;;;;5091912;28;20210;-67
2023/01/28 02:41:45;;;;;;;0.00;0.00;;;2.30;99.90;;;;;;5093464;28;20211;-67
2023/01/28 02:44:11;;;;;;;0.00;0.00;;;2.20;99.90;;;;;;5092114;28;20199;-67
2023/01/28 02:49:40;;;;;;;0.00;0.00;;;2.10;99.90;;;;;;5084542;28;20210;-67
2023/01/28 02:55:27;;;;;;;0.00;0.00;;;2.10;99.90;;;;;;5080130;28;20227;-67
2023/01/28 02:57:59;;;;;;;0.03;0.03;;;2.10;99.90;;;;;;5092060;28;20176;-67
2023/01/28 03:00:39;;;;;;;0.00;0.00;;;2.10;99.90;;;;;;5093162;28;20188;-67
2023/01/28 03:03:20;;;;;;;0.00;0.00;;;2.10;99.90;;;;;;5092904;28;20172;-67
2023/01/28 03:06:07;;;;;;;0.00;0.00;;;2.10;99.90;;;;;;5092532;28;20191;-68
2023/01/28 03:36:46;;;;;;;0.00;0.00;;;2.00;99.90;;;;;;5092489;28;20194;-67
2023/01/28 03:39:12;;;;;;;0.00;0.00;;;2.00;99.90;;;;;;5090971;28;20183;-68
2023/01/28 03:41:37;;;;;;;0.00;0.00;;;2.00;99.90;;;;;;5092413;28;20528;-67
2023/01/28 03:46:47;;;;;;;0.00;0.00;;;2.00;99.90;;;;;;5088113;28;20229;-68
2023/01/28 03:49:14;;;;;;;0.00;0.00;;;2.00;99.90;;;;;;5091607;28;20180;-68
2023/01/28 03:51:40;;;;;;;0.00;0.00;;;2.00;99.90;;;;;;5090745;28;20180;-68
2023/01/28 03:54:06;;;;;;;0.00;0.00;;;2.00;99.90;;;;;;5091227;28;20272;-67
2023/01/28 03:56:36;;;;;;;0.00;0.00;;;2.00;99.90;;;;;;5092064;28;20180;-68
2023/01/28 03:59:02;;;;;;;0.00;0.00;;;2.00;99.90;;;;;;5091728;28;20631;-68
2023/01/28 04:01:28;;;;;;;0.00;0.00;;;2.00;99.90;;;;;;5090785;28;20187;-68
2023/01/28 04:03:53;;;;;;;0.00;0.00;;;2.00;99.90;;;;;;5090644;28;20180;-68
2023/01/28 04:06:19;;;;;;;0.00;0.00;;;2.00;99.90;;;;;;5091471;28;20253;-68
2023/01/28 04:08:47;;;;;;;0.22;0.22;;;2.00;99.90;;;;;;5091356;28;20172;-68
2023/01/28 04:11:18;;;;;;;0.17;0.17;;;2.10;99.90;;;;;;5091699;28;20184;-68
2023/01/28 04:13:44;;;;;;;0.00;0.00;;;2.10;99.90;;;;;;5090310;28;22100;-68
2023/01/28 04:16:11;;;;;;;0.13;0.13;;;2.10;99.90;;;;;;5090837;28;20212;-68
2023/01/28 04:18:36;;;;;;;0.00;0.00;;;2.10;99.90;;;;;;5092014;28;20215;-68
2023/01/28 04:21:02;;;;;;;0.00;0.00;;;2.10;99.90;;;;;;5091389;28;20223;-68
2023/01/28 04:23:28;;;;;;;0.00;0.00;;;2.20;99.90;;;;;;5089853;28;20666;-68
2023/01/28 04:25:54;;;;;;;0.00;0.00;;;2.20;99.90;;;;;;5091054;28;20289;-68
2023/01/28 04:28:20;;;;;;;0.10;0.10;;;2.20;99.90;;;;;;5091098;28;20674;-68
2023/01/28 04:30:45;;;;;;;0.00;0.00;;;2.20;99.90;;;;;;5091677;28;20195;-68
2023/01/28 04:33:11;;;;;;;0.00;0.00;;;2.20;99.90;;;;;;5091236;28;20225;-68
2023/01/28 04:35:36;;;;;;;0.00;0.00;;;2.20;99.90;;;;;;5091257;28;20223;-68
2023/01/28 04:38:02;;;;;;;0.00;0.00;;;2.20;99.90;;;;;;5090961;28;20183;-68
2023/01/28 04:40:27;;;;;;;0.00;0.00;;;2.10;99.90;;;;;;5091194;28;20358;-68
2023/01/28 04:42:54;;;;;;;0.00;0.00;;;2.10;99.90;;;;;;5091576;28;20218;-67
2023/01/28 04:45:20;;;;;;;0.00;0.00;;;2.10;99.90;;;;;;5089247;28;20835;-67
2023/01/28 04:47:46;;;;;;;0.00;0.00;;;2.10;99.90;;;;;;5090947;28;20211;-67
2023/01/28 04:50:12;;;;;;;0.00;0.00;;;2.10;99.90;;;;;;5091276;28;20256;-67
2023/01/28 04:52:37;;;;;;;0.00;0.00;;;2.00;99.90;;;;;;5089167;28;20180;-67
2023/01/28 04:55:03;;;;;;;0.00;0.00;;;2.00;99.90;;;;;;5090859;28;20666;-67
2023/01/28 04:57:29;;;;;;;0.00;0.00;;;2.00;99.90;;;;;;5090537;28;20666;-68
2023/01/28 04:59:54;;;;;;;0.00;0.00;;;1.90;99.90;;;;;;5091327;28;20279;-67
2023/01/28 05:02:20;;;;;;;0.00;0.00;;;1.90;99.90;;;;;;5090895;28;20585;-68
2023/01/28 05:04:46;;;;;;;0.00;0.00;;;1.90;99.90;;;;;;5090619;28;20266;-68
2023/01/28 05:07:11;;;;;;;0.00;0.00;;;1.80;99.90;;;;;;5090748;28;20259;-68
2023/01/28 05:09:37;;;;;;;0.00;0.00;;;1.80;99.90;;;;;;5090135;28;20190;-68
2023/01/28 05:12:03;;;;;;;0.00;0.00;;;1.80;99.90;;;;;;5090648;28;20333;-69
2023/01/28 05:14:28;;;;;;;0.00;0.00;;;1.70;99.90;;;;;;5090976;28;20239;-68
2023/01/28 05:16:54;;;;;;;0.00;0.00;;;1.70;99.90;;;;;;5090526;28;20212;-68
2023/01/28 05:19:20;;;;;;;0.00;0.00;;;1.70;99.90;;;;;;5090436;28;20176;-68
2023/01/28 05:21:45;;;;;;;0.00;0.00;;;1.70;99.90;;;;;;5090875;28;20568;-68
2023/01/28 05:24:11;;;;;;;0.00;0.00;;;1.70;99.90;;;;;;5090622;28;20179;-68
2023/01/28 05:26:36;;;;;;;0.00;0.00;;;1.70;99.90;;;;;;5082446;28;20184;-68
2023/01/28 05:29:03;;;;;;;0.00;0.00;;;1.70;99.90;;;;;;5093666;28;20184;-68
2023/01/28 05:31:28;;;;;;;0.25;0.13;;;1.70;99.90;;;;;;5094621;28;20180;-68
2023/01/28 05:33:54;;;;;;;0.00;0.00;;;1.70;99.90;;;;;;5094567;28;20561;-68
2023/01/28 05:36:19;;;;;;;0.00;0.00;;;1.70;99.90;;;;;;5094347;28;20172;-68
2023/01/28 05:38:45;;;;;;;0.00;0.00;;;1.70;99.90;;;;;;5094226;28;20180;-68
2023/01/28 05:41:10;;;;;;;0.00;0.00;;;1.70;99.90;;;;;;5094160;28;20180;-69
2023/01/28 05:43:36;;;;;;;0.10;0.10;;;1.70;99.90;;;;;;5092703;28;20180;-68
2023/01/28 05:46:02;;;;;;;0.00;0.00;;;1.70;99.90;;;;;;5094285;28;20304;-68
2023/01/28 05:48:27;;;;;;;0.30;0.30;;;1.70;99.90;;;;;;5094594;28;20229;-68
2023/01/28 05:50:53;;;;;;;0.10;0.10;;;1.80;99.90;;;;;;5094044;28;20655;-68
2023/01/28 05:53:18;;;;;;;0.10;0.10;;;1.80;99.90;;;;;;5093650;28;20176;-68
2023/01/28 05:55:52;;;;;;;0.00;0.00;;;1.80;99.90;;;;;;5093901;28;20208;-68
2023/01/28 05:58:18;;;;;;;0.00;0.00;;;1.80;99.90;;;;;;5094080;28;20267;-67
2023/01/28 06:00:43;;;;;;;0.25;0.25;;;1.80;99.90;;;;;;5094200;28;20267;-68
2023/01/28 06:03:09;;;;;;;0.00;0.00;;;1.80;99.90;;;;;;5093728;28;20262;-68
2023/01/28 06:05:34;;;;;;;0.00;0.00;;;1.80;99.90;;;;;;5093966;28;20195;-68
2023/01/28 06:08:00;;;;;;;0.00;0.00;;;1.80;99.90;;;;;;5093010;28;20184;-68
2023/01/28 06:10:26;;;;;;;0.00;0.00;;;1.80;99.90;;;;;;5093786;28;20500;-67
2023/01/28 06:12:51;;;;;;;0.00;0.00;;;1.80;99.90;;;;;;5093774;28;20228;-68
2023/01/28 06:15:17;;;;;;;0.20;0.20;;;1.80;99.90;;;;;;5093496;28;20612;-68
2023/01/28 06:17:42;;;;;;;0.00;0.00;;;1.80;99.90;;;;;;5093532;28;20175;-68
2023/01/28 06:20:08;;;;;;;0.00;0.00;;;1.80;99.90;;;;;;5093643;28;20233;-68
2023/01/28 06:22:34;;;;;;;0.00;0.00;;;1.80;99.90;;;;;;5093554;28;20750;-68
2023/01/28 06:24:59;;;;;;;0.00;0.00;;;1.80;99.90;;;;;;5093106;28;20263;-68
2023/01/28 06:27:26;;;;;;;0.08;0.08;;;1.80;99.90;;;;;;5092028;28;20180;-68
2023/01/28 06:29:51;;;;;;;0.00;0.00;;;1.80;99.90;;;;;;5093550;28;20690;-68
2023/01/28 06:32:17;;;;;;;0.00;0.00;;;1.80;99.90;;;;;;5093470;28;20183;-68
2023/01/28 06:34:43;;;;;;;0.00;0.00;;;1.80;99.90;;;;;;5092838;28;20219;-68
2023/01/28 06:37:11;;;;;;;0.00;0.00;;;1.80;99.90;;;;;;5093390;28;20493;-68
2023/01/28 06:39:36;;;;;;;0.00;0.00;;;1.90;99.90;;;;;;5092429;28;20184;-68
2023/01/28 06:42:02;;;;;;;0.00;0.00;;;1.90;99.90;;;;;;5091716;28;20183;-68
2023/01/28 06:44:27;;;;;;;0.00;0.00;;;1.90;99.90;;;;;;5093413;28;20182;-68
2023/01/28 06:46:53;;;;;;;0.00;0.00;;;1.90;99.90;;;;;;5093354;28;20234;-68
2023/01/28 06:49:19;;;;;;;0.00;0.00;;;1.90;99.90;;;;;;5092765;28;20661;-68
2023/01/28 06:51:45;;;;;;;0.10;0.10;;;1.90;99.90;;;;;;5092664;28;20178;-68
2023/01/28 06:54:10;;;;;;;0.30;0.30;;;1.90;99.90;;;;;;5092954;28;20219;-67
2023/01/28 06:56:35;;;;;;;0.00;0.00;;;1.90;99.90;;;;;;5093005;28;20217;-67
2023/01/28 06:59:01;;;;;;;0.00;0.00;;;1.90;99.90;;;;;;5092421;28;20192;-68
2023/01/28 07:01:27;;;;;;;0.00;0.00;;;1.90;99.90;;;;;;5091817;28;20179;-68
2023/01/28 07:03:52;;;;;;;0.00;0.00;;;1.90;99.90;;;;;;5092796;28;20172;-68
2023/01/28 07:06:18;;;;;;;0.00;0.00;;;1.90;99.90;;;;;;5090881;28;20179;-68
2023/01/28 07:08:43;;;;;;;0.00;0.00;;;1.90;99.90;;;;;;5092804;28;20190;-68
2023/01/28 07:11:09;;;;;;;0.00;0.00;;;1.90;99.90;;;;;;5092670;28;20321;-68
2023/01/28 07:13:34;;;;;;;0.00;0.00;;;1.90;99.90;;;;;;5092507;28;20212;-68
2023/01/28 07:16:00;;;;;;;0.00;0.00;;;1.90;99.90;;;;;;5092367;28;20180;-68
2023/01/28 07:18:26;;;;;;;0.00;0.00;;;1.90;99.90;;;;;;5093013;28;20607;-68
2023/01/28 07:20:52;;;;;;;0.00;0.00;;;1.80;99.90;;;;;;5092802;28;20188;-68
2023/01/28 07:23:17;;;;;;;0.00;0.00;;;1.80;99.90;;;;;;5092718;28;20595;-68
2023/01/28 07:25:43;;;;;;;0.00;0.00;;;1.80;99.90;;;;;;5092104;28;20187;-68
2023/01/28 07:28:09;;;;;;;0.00;0.00;;;1.80;99.90;;;;;;5092480;28;20195;-67
2023/01/28 07:30:34;;;;;;;0.00;0.00;;;1.80;99.90;;;;;;5092665;28;20662;-68
2023/01/28 07:33:00;;;;;;;0.00;0.00;;;1.70;99.90;;;;;;5092211;28;20178;-68
2023/01/28 07:35:26;;;;;;;0.00;0.00;;;1.70;99.90;;;;;;5092518;28;20258;-68
2023/01/28 07:37:57;;;;;;;0.00;0.00;;;1.80;99.90;;;;;;5090760;28;20194;-67
2023/01/28 07:40:23;;;;;;;0.00;0.00;;;1.80;99.90;;;;;;5091547;28;20267;-69
2023/01/28 07:42:49;;;;;;;0.00;0.00;;;1.80;99.90;;;;;;5090301;28;20183;-68
2023/01/28 07:45:15;;;;;;;0.00;0.00;;;1.80;99.90;;;;;;5092319;28;20180;-68
2023/01/28 07:47:41;;;;;;;0.90;0.90;;;1.80;99.90;;;;;;5091847;28;20661;-69
2023/01/28 07:50:08;;;;;;;0.00;0.00;;;1.80;99.90;;;;;;5092370;28;20172;-69
2023/01/28 07:52:43;;;;;;;0.00;0.00;;;1.80;99.90;;;;;;5091373;28;20267;-69
2023/01/28 07:55:09;;;;;;;0.20;0.20;;;1.90;99.90;;;;;;5091497;28;20276;-69
2023/01/28 07:57:34;;;;;;;0.00;0.00;;;1.90;99.90;;;;;;5091678;28;20196;-63
2023/01/28 08:00:00;;;;;;;0.00;0.00;;;1.90;99.90;;;;;;5091957;28;20184;-63
2023/01/28 08:02:25;;;;;;;0.00;0.00;;;1.90;99.90;;;;;;5092518;28;20180;-67
2023/01/28 08:04:51;;;;;;;0.00;0.00;;;1.90;99.90;;;;;;5091804;28;20655;-63
2023/01/28 08:07:17;;;;;;;0.00;0.00;;;1.90;99.90;;;;;;5091670;28;20180;-65
2023/01/28 08:09:42;;;;;;;0.00;0.00;;;2.00;99.90;;;;;;5091802;28;20366;-69
2023/01/28 08:12:08;;;;;;;0.03;0.03;;;2.00;99.90;;;;;;5090356;28;20695;-68
2023/01/28 08:14:34;;;;;;;0.20;0.20;;;2.00;99.90;;;;;;5091240;28;20212;-65
2023/01/28 08:16:59;;;;;;;0.73;0.73;;;2.10;99.90;;;;;;5091696;28;20179;-69
2023/01/28 08:19:25;;;;;;;0.00;0.00;;;2.10;99.90;;;;;;5091658;28;20259;-66
2023/01/28 08:21:50;;;;;;;0.00;0.00;;;2.10;99.90;;;;;;5090679;28;20180;-72
2023/01/28 08:24:16;;;;;;;0.00;0.00;;;2.10;99.90;;;;;;5092059;28;20623;-71
2023/01/28 08:26:42;;;;;;;0.00;0.00;;;2.10;99.90;;;;;;5091620;28;20188;-68
2023/01/28 08:29:08;;;;;;;0.00;0.00;;;2.10;99.90;;;;;;5091071;28;20176;-65
2023/01/28 08:31:33;;;;;;;0.00;0.00;;;2.20;99.90;;;;;;5092106;28;20704;-66
2023/01/28 08:33:59;;;;;;;0.08;0.08;;;2.20;99.90;;;;;;5091607;28;20199;-68
2023/01/28 08:36:24;;;;;;;0.00;0.00;;;2.20;99.90;;;;;;5092103;28;20184;-66
2023/01/28 08:38:53;;;;;;;0.00;0.00;;;2.20;99.90;;;;;;5090769;28;20550;-67
2023/01/28 08:41:22;;;;;;;0.00;0.00;;;2.30;99.90;;;;;;5092692;28;20176;-67
2023/01/28 08:43:48;;;;;;;0.00;0.00;;;2.30;99.90;;;;;;5091817;28;20172;-66
2023/01/28 08:46:15;;;;;;;0.00;0.00;;;2.30;99.90;;;;;;5091911;28;20176;-66
2023/01/28 08:48:40;;;;;;;0.00;0.00;;;2.30;99.90;;;;;;5091632;28;20639;-67
2023/01/28 08:51:06;;;;;;;0.10;0.10;;;2.30;99.90;;;;;;5091888;28;20223;-67
2023/01/28 08:53:31;;;;;;;0.00;0.00;;;2.20;99.90;;;;;;5091905;28;20176;-67
2023/01/28 08:55:57;;;;;;;0.08;0.08;;;2.30;99.90;;;;;;5073878;28;20244;-67
2023/01/28 08:58:23;;;;;;;0.00;0.00;;;2.30;99.90;;;;;;5080970;28;20175;-67
2023/01/28 09:00:49;;;;;;;0.30;0.10;;;2.30;99.90;;;;;;5089493;28;20218;-67
2023/01/28 09:03:15;;;;;;;0.00;0.00;;;2.30;99.90;;;;;;5093219;28;20267;-67
2023/01/28 09:05:40;;;;;;;0.00;0.00;;;2.60;99.90;;;;;;5094994;28;20275;-68
2023/01/28 09:08:10;;;;;;;0.00;0.00;;;2.70;99.90;;;;;;5095337;28;20631;-67
2023/01/28 09:10:37;;;;;;;0.00;0.00;;;2.70;99.90;;;;;;5095654;28;20195;-68
2023/01/28 09:13:07;;;;;;;0.00;0.00;;;2.70;99.90;;;;;;5095031;28;20271;-67
2023/01/28 09:15:33;;;;;;;0.00;0.00;;;2.70;99.90;;;;;;5093517;28;20211;-67
2023/01/28 09:17:59;;;;;;;0.00;0.00;;;2.60;99.90;;;;;;5094952;28;20168;-67
2023/01/28 09:20:25;;;;;;;0.00;0.00;;;2.60;99.90;;;;;;5095273;28;20183;-67
2023/01/28 09:22:51;;;;;;;0.00;0.00;;;2.60;99.90;;;;;;5094536;28;20180;-67
2023/01/28 09:25:16;;;;;;;0.20;0.20;;;2.60;99.90;;;;;;5095320;28;20267;-67
2023/01/28 09:27:42;;;;;;;0.00;0.00;;;2.60;99.90;;;;;;5095153;28;20309;-68
2023/01/28 09:30:09;;;;;;;0.00;0.00;;;2.60;99.90;;;;;;5095367;28;20168;-67
2023/01/28 09:32:35;;;;;;;0.00;0.00;;;2.60;99.90;;;;;;5095284;28;20706;-68
2023/01/28 09:35:00;;;;;;;0.00;0.00;;;2.60;99.90;;;;;;5094649;28;20369;-68
2023/01/28 09:37:26;;;;;;;0.30;0.30;;;2.60;99.90;;;;;;5105807;28;20240;-67
2023/01/28 09:39:51;;;;;;;0.00;0.00;;;2.60;99.90;;;;;;5094924;28;20172;-67
2023/01/28 09:42:31;;;;;;;0.00;0.00;;;2.60;99.90;;;;;;5094826;28;20229;-67
2023/01/28 09:45:11;;;;;;;0.00;0.00;;;2.60;99.90;;;;;;5094335;28;20184;-61
2023/01/28 09:47:46;;;;;;;0.43;0.43;;;2.60;99.90;;;;;;5094909;28;20181;-66
2023/01/28 09:50:22;;;;;;;0.10;0.10;;;2.60;99.90;;;;;;5094800;28;20183;-67
2023/01/28 09:52:49;;;;;;;0.00;0.00;;;3.00;99.90;;;;;;5094930;28;20194;-68
2023/01/28 09:55:18;;;;;;;0.50;0.50;;;3.10;99.90;;;;;;5093413;28;20717;-67
2023/01/28 09:57:54;;;;;;;0.00;0.00;;;3.10;99.90;;;;;;5094804;28;20172;-67
2023/01/28 10:00:40;;;;;;;0.00;0.00;;;3.10;99.90;;;;;;5094541;28;20674;-68
2023/01/28 10:03:36;;;;;;;0.00;0.00;;;3.00;99.90;;;;;;5094403;28;20643;-67
2023/01/28 10:06:17;;;;;;;0.00;0.00;;;2.90;99.90;;;;;;5085777;28;20639;-68
2023/01/28 10:09:03;;;;;;;0.00;0.00;;;2.90;99.90;;;;;;5093589;28;20600;-64
2023/01/28 10:11:31;;;;;;;0.10;0.10;;;2.90;99.90;;;;;;5093860;28;20175;-66
2023/01/28 10:14:15;;;;;;;0.00;0.00;;;2.90;99.90;;;;;;5092397;28;21142;-69
2023/01/28 10:17:03;;;;;;;0.20;0.20;;;2.90;99.90;;;;;;5092819;28;20184;-67
2023/01/28 10:19:41;;;;;;;0.00;0.00;;;2.90;99.90;;;;;;5093497;28;20543;-65
2023/01/28 10:22:19;;;;;;;0.00;0.00;;;2.80;99.90;;;;;;5093777;28;20176;-66
2023/01/28 10:24:49;;;;;;;0.25;0.25;;;2.80;99.90;;;;;;5094246;28;20177;-66
2023/01/28 10:27:20;;;;;;;0.00;0.00;;;2.80;99.90;;;;;;5094224;28;20643;-66
2023/01/28 10:29:48;;;;;;;0.00;0.00;;;2.80;99.90;;;;;;5093944;28;20215;-67
2023/01/28 10:32:37;;;;;;;0.00;0.00;;;2.80;99.90;;;;;;5094149;28;20183;-66
2023/01/28 10:35:03;;;;;;;0.10;0.10;;;2.80;99.90;;;;;;5093879;28;20243;-66
2023/01/28 10:37:34;;;;;;;0.00;0.00;;;2.80;99.90;;;;;;5093839;28;20673;-66
2023/01/28 10:40:01;;;;;;;0.30;0.20;;;2.80;99.90;;;;;;5093857;28;20631;-66
2023/01/28 10:42:33;;;;;;;0.00;0.00;;;2.70;99.90;;;;;;5093943;28;20229;-66
2023/01/28 10:45:04;;;;;;;0.00;0.00;;;2.70;99.90;;;;;;5093864;28;20530;-66
2023/01/28 10:47:39;;;;;;;0.05;0.05;;;2.70;99.90;;;;;;5092572;28;20204;-66
2023/01/28 10:50:14;;;;;;;0.00;0.00;;;2.60;99.90;;;;;;5093845;28;20182;-66
2023/01/28 10:52:55;;;;;;;0.00;0.00;;;2.60;99.90;;;;;;5093541;28;20167;-66
2023/01/28 10:55:21;;;;;;;0.00;0.00;;;2.70;99.90;;;;;;5093655;28;20212;-66
2023/01/28 10:57:48;;;;;;;0.00;0.00;;;2.70;99.90;;;;;;5093386;28;20176;-66
2023/01/28 11:00:19;;;;;;;0.00;0.00;;;2.70;99.90;;;;;;5093584;28;20551;-66
2023/01/28 11:02:47;;;;;;;0.00;0.00;;;2.70;99.90;;;;;;5093467;28;20164;-67
2023/01/28 11:05:22;;;;;;;0.00;0.00;;;2.70;99.90;;;;;;5093366;28;20318;-66
2023/01/28 11:07:48;;;;;;;0.00;0.00;;;2.70;99.90;;;;;;5093386;28;20545;-66
2023/01/28 11:10:33;;;;;;;0.10;0.10;;;2.70;99.90;;;;;;5093373;28;20549;-66
2023/01/28 11:13:02;;;;;;;0.00;0.00;;;2.70;99.90;;;;;;5092805;28;20227;-66
2023/01/28 11:15:28;;;;;;;0.08;0.08;;;2.70;99.90;;;;;;5093210;28;20242;-67
2023/01/28 11:18:01;;;;;;;0.00;0.00;;;2.70;99.90;;;;;;5093143;28;20187;-66
2023/01/28 11:20:30;;;;;;;0.10;0.10;;;2.80;99.90;;;;;;5093313;28;20176;-69
2023/01/28 11:22:56;;;;;;;0.08;0.08;;;2.80;99.90;;;;;;5093135;28;20316;-67
2023/01/28 11:25:36;;;;;;;0.00;0.00;;;2.80;99.90;;;;;;5091648;28;20176;-66
2023/01/28 11:28:07;;;;;;;0.20;0.13;;;2.80;99.90;;;;;;5092859;28;20168;-67
2023/01/28 11:30:39;;;;;;;0.00;0.00;;;2.80;99.90;;;;;;5093095;28;20178;-66
2023/01/28 11:33:16;;;;;;;0.00;0.00;;;2.80;99.90;;;;;;5092993;28;20168;-66
2023/01/28 11:35:51;;;;;;;0.00;0.00;;;2.80;99.90;;;;;;5092649;28;20216;-66
2023/01/28 11:38:20;;;;;;;0.10;0.10;;;2.80;99.90;;;;;;5093060;28;20171;-67
2023/01/28 11:40:54;;;;;;;0.00;0.00;;;2.90;99.90;;;;;;5092726;28;20189;-66
2023/01/28 11:43:23;;;;;;;0.00;0.00;;;2.90;99.90;;;;;;5092788;28;20181;-67
2023/01/28 11:46:11;;;;;;;0.00;0.00;;;2.90;99.90;;;;;;5092507;28;20537;-66
2023/01/28 11:49:05;;;;;;;0.00;0.00;;;3.00;99.90;;;;;;5092697;28;20176;-66
2023/01/28 11:51:44;;;;;;;0.00;0.00;;;3.00;99.90;;;;;;5092722;28;20164;-67
2023/01/28 11:54:12;;;;;;;0.00;0.00;;;3.00;99.90;;;;;;5092522;28;20204;-66
2023/01/28 11:56:53;;;;;;;0.00;0.00;;;3.00;99.90;;;;;;5092364;28;20312;-66
2023/01/28 11:59:43;;;;;;;0.10;0.10;;;3.00;99.90;;;;;;5092459;28;20195;-67
2023/01/28 12:02:49;;;;;;;0.00;0.00;;;3.00;99.90;;;;;;5092516;28;20503;-67
2023/01/28 12:05:33;;;;;;;0.32;0.32;;;3.00;99.90;;;;;;5074565;28;20237;-66
2023/01/28 12:08:21;;;;;;;0.00;0.00;;;3.00;99.90;;;;;;5092212;28;20646;-66
2023/01/28 12:12:10;;;;;;;0.00;0.00;;;3.10;99.90;;;;;;5092342;28;20172;-66
2023/01/28 12:14:37;;;;;;;0.00;0.00;;;3.10;99.90;;;;;;5092065;28;20573;-66
2023/01/28 12:17:31;;;;;;;0.00;0.00;;;3.10;99.90;;;;;;5092104;28;20529;-66
2023/01/28 12:20:14;;;;;;;0.17;0.17;;;3.10;99.90;;;;;;5089548;28;20210;-66
2023/01/28 12:22:49;;;;;;;0.00;0.00;;;3.10;99.90;;;;;;5092041;28;20187;-66
2023/01/28 12:25:47;;;;;;;0.10;0.10;;;3.20;99.90;;;;;;5090917;28;20560;-66
2023/01/28 12:28:31;;;;;;;0.00;0.00;;;3.20;99.90;;;;;;5036536;28;20184;-67
2023/01/28 12:31:05;;;;;;;0.00;0.00;;;3.20;99.90;;;;;;5092039;28;20206;-66
2023/01/28 12:33:46;;;;;;;0.00;0.00;;;3.20;99.90;;;;;;5092009;28;20182;-66
2023/01/28 12:36:32;;;;;;;0.10;0.10;;;3.20;99.90;;;;;;5091962;28;20566;-66
2023/01/28 12:39:25;;;;;;;0.00;0.00;;;3.30;99.90;;;;;;5089978;28;20182;-67
2023/01/28 12:41:59;;;;;;;0.00;0.00;;;3.30;99.90;;;;;;5091804;28;20168;-67
2023/01/28 12:44:36;;;;;;;0.00;0.00;;;3.30;99.90;;;;;;5091911;28;20171;-67
2023/01/28 12:47:09;;;;;;;0.00;0.00;;;3.30;99.90;;;;;;5091783;28;20530;-67
2023/01/28 12:49:43;;;;;;;0.70;0.47;;;3.30;99.90;;;;;;5090681;28;20699;-67
2023/01/28 12:52:22;;;;;;;0.00;0.00;;;3.30;99.90;;;;;;5092000;28;20185;-67
2023/01/28 12:55:00;;;;;;;0.00;0.00;;;3.30;99.90;;;;;;5091779;28;20204;-67
2023/01/28 12:57:28;;;;;;;0.00;0.00;;;3.30;99.90;;;;;;5091691;28;20182;-67
2023/01/28 13:00:28;;;;;;;0.00;0.00;;;3.20;99.90;;;;;;5091628;28;20180;-67
2023/01/28 13:03:18;;;;;;;0.00;0.00;;;3.20;99.90;;;;;;5091616;28;20168;-67
2023/01/28 13:05:54;;;;;;;0.03;0.03;;;3.20;99.90;;;;;;5091590;28;20184;-66
2023/01/28 13:08:25;;;;;;;0.00;0.00;;;3.20;99.90;;;;;;5091688;28;20254;-67
2023/01/28 13:10:52;;;;;;;0.00;0.00;;;3.30;99.90;;;;;;5091656;28;20260;-66
2023/01/28 13:13:33;;;;;;;0.00;0.00;;;3.30;99.90;;;;;;5091349;28;20223;-66
2023/01/28 13:16:00;;;;;;;0.00;0.00;;;3.30;99.90;;;;;;5091519;28;20270;-66
2023/01/28 13:18:34;;;;;;;0.00;0.00;;;3.30;99.90;;;;;;5091775;28;20176;-67
2023/01/28 13:21:01;;;;;;;0.00;0.00;;;3.30;99.90;;;;;;5091513;28;20535;-67
2023/01/28 13:23:30;;;;;;;0.00;0.00;;;3.30;99.90;;;;;;5091524;28;20605;-67
2023/01/28 13:26:07;;;;;;;0.00;0.00;;;3.40;99.90;;;;;;5091532;28;20180;-67
2023/01/28 13:28:33;;;;;;;0.00;0.00;;;3.40;99.90;;;;;;5091627;28;20172;-67
2023/01/28 13:31:05;;;;;;;0.00;0.00;;;3.40;99.90;;;;;;5091401;28;20226;-67
2023/01/28 13:33:36;;;;;;;0.00;0.00;;;3.40;99.90;;;;;;5091521;28;20175;-67
2023/01/28 13:36:22;;;;;;;0.00;0.00;;;3.40;99.90;;;;;;5091475;28;20207;-68
2023/01/28 13:38:58;;;;;;;0.00;0.00;;;3.40;99.90;;;;;;5091444;28;20168;-67
2023/01/28 13:41:23;;;;;;;0.00;0.00;;;3.40;99.90;;;;;;5091504;28;20269;-67
2023/01/28 13:43:49;;;;;;;0.08;0.08;;;3.40;99.90;;;;;;5089952;28;20176;-67
2023/01/28 13:46:29;;;;;;;0.20;0.20;;;3.40;99.90;;;;;;5090178;28;20187;-67
2023/01/28 13:48:57;;;;;;;0.00;0.00;;;3.40;99.90;;;;;;5091303;28;20172;-67
2023/01/28 13:51:36;;;;;;;0.00;0.00;;;3.40;99.90;;;;;;5094789;28;20180;-67